Time;durP1;ratioP1;P1;durP2;ratioP2;P2;SDS_P1;SDS_P2;PMS_P1;PMS_P2;Temp;Humidity;BMP_temperature;BMP_pressure;BME280_temperature;BME280_humidity;BME280_pressure;Samples;Min_cycle;Max_cycle;Signal;HPM_P1;HPM_P2
2021/05/10 00:01:57;;;;;;;4.53;2.60;;;20.10;69.30;;;;;;5016346;28;20033;-83
2021/05/10 00:04:23;;;;;;;6.20;3.15;;;20.00;69.40;;;;;;5015467;28;20038;-82
2021/05/10 00:06:48;;;;;;;4.65;2.58;;;20.00;69.40;;;;;;5015702;28;20053;-83
2021/05/10 00:09:14;;;;;;;5.38;3.03;;;20.00;69.40;;;;;;5016995;28;20040;-82
2021/05/10 00:11:40;;;;;;;5.05;3.08;;;20.00;69.40;;;;;;5015860;28;20024;-85
2021/05/10 00:14:06;;;;;;;8.38;3.00;;;20.00;69.50;;;;;;5017573;28;20418;-83
2021/05/10 00:16:32;;;;;;;6.28;3.38;;;20.00;69.50;;;;;;4983443;28;20104;-84
2021/05/10 00:18:59;;;;;;;6.85;3.30;;;19.90;69.50;;;;;;5015868;28;20034;-84
2021/05/10 00:21:25;;;;;;;5.53;3.30;;;19.90;69.70;;;;;;5015827;28;20034;-84
2021/05/10 00:23:51;;;;;;;5.20;3.17;;;19.90;69.70;;;;;;5015313;28;20029;-83
2021/05/10 00:26:17;;;;;;;6.05;3.72;;;19.90;69.70;;;;;;5016127;28;20041;-83
2021/05/10 00:28:42;;;;;;;7.10;3.80;;;19.90;69.70;;;;;;4999404;28;20030;-84
2021/05/10 00:31:08;;;;;;;6.47;3.15;;;19.90;69.80;;;;;;5015790;28;20056;-83
2021/05/10 00:33:34;;;;;;;8.45;3.70;;;19.90;70.00;;;;;;5015391;28;20034;-80
2021/05/10 00:36:00;;;;;;;5.45;2.75;;;19.90;70.00;;;;;;5015292;28;20053;-83
2021/05/10 00:38:25;;;;;;;7.75;3.55;;;19.80;70.00;;;;;;5017043;28;20057;-84
2021/05/10 00:40:51;;;;;;;5.30;3.08;;;19.80;70.10;;;;;;5015635;28;20025;-86
2021/05/10 00:43:17;;;;;;;7.22;3.15;;;19.80;70.20;;;;;;4998940;28;20081;-85
2021/05/10 00:45:42;;;;;;;5.43;3.28;;;19.80;70.60;;;;;;5015614;28;20046;-86
2021/05/10 00:48:08;;;;;;;5.70;3.28;;;19.80;70.60;;;;;;5015297;28;20113;-84
2021/05/10 00:50:34;;;;;;;6.43;3.38;;;19.70;70.70;;;;;;5016419;28;20033;-85
2021/05/10 00:53:00;;;;;;;6.78;3.53;;;19.70;70.90;;;;;;5016508;28;20021;-83
2021/05/10 00:55:27;;;;;;;5.93;3.25;;;19.70;71.00;;;;;;4999221;28;20029;-84
2021/05/10 00:58:01;;;;;;;4.70;3.33;;;19.60;71.00;;;;;;5015980;28;20117;-89
2021/05/10 01:00:29;;;;;;;7.00;3.78;;;19.60;71.20;;;;;;5015978;28;20022;-85
2021/05/10 01:02:55;;;;;;;7.18;3.50;;;19.60;71.20;;;;;;5018525;28;20113;-86
2021/05/10 01:05:21;;;;;;;6.35;4.13;;;19.60;71.40;;;;;;5015626;28;20125;-87
2021/05/10 01:07:47;;;;;;;5.72;3.92;;;19.60;71.80;;;;;;5014698;28;20176;-87
2021/05/10 01:10:15;;;;;;;7.03;4.22;;;19.60;71.80;;;;;;5015190;28;20028;-85
2021/05/10 01:12:41;;;;;;;7.55;3.83;;;19.60;71.90;;;;;;5015175;28;20478;-87
2021/05/10 01:15:12;;;;;;;6.40;3.90;;;19.60;72.00;;;;;;5016179;28;20026;-84
2021/05/10 01:17:40;;;;;;;5.63;3.78;;;19.50;72.20;;;;;;5014724;28;20119;-87
2021/05/10 01:20:15;;;;;;;6.10;3.72;;;19.50;72.30;;;;;;5014266;28;20029;-84
2021/05/10 01:22:42;;;;;;;7.90;4.20;;;19.50;72.60;;;;;;5015797;28;20025;-85
2021/05/10 01:25:11;;;;;;;6.75;4.40;;;19.50;72.60;;;;;;5014634;28;20030;-85
2021/05/10 01:27:37;;;;;;;6.13;4.55;;;19.40;72.50;;;;;;5015638;28;20021;-83
2021/05/10 01:30:08;;;;;;;5.40;3.92;;;19.50;72.60;;;;;;5015721;28;20025;-85
2021/05/10 01:32:34;;;;;;;6.97;4.05;;;19.50;72.70;;;;;;5015514;28;20025;-86
2021/05/10 01:35:00;;;;;;;9.27;4.68;;;19.40;72.50;;;;;;5015366;28;20028;-86
2021/05/10 01:37:25;;;;;;;8.23;4.50;;;19.40;72.50;;;;;;5014486;28;20018;-85
2021/05/10 01:39:51;;;;;;;6.43;4.55;;;19.40;72.60;;;;;;5015453;28;20088;-85
2021/05/10 01:42:17;;;;;;;6.75;4.22;;;19.40;72.50;;;;;;5014226;28;20026;-85
2021/05/10 01:44:43;;;;;;;5.47;3.67;;;19.40;72.60;;;;;;5015498;28;20042;-85
2021/05/10 01:47:12;;;;;;;6.47;4.35;;;19.30;72.50;;;;;;5013817;28;20371;-85
2021/05/10 01:49:37;;;;;;;5.70;3.83;;;19.30;72.50;;;;;;4982755;28;20022;-85
2021/05/10 01:52:03;;;;;;;7.57;3.85;;;19.30;72.60;;;;;;5014300;28;20034;-85
2021/05/10 01:54:29;;;;;;;6.05;3.97;;;19.30;72.60;;;;;;5015348;28;20498;-85
2021/05/10 01:56:55;;;;;;;5.78;3.95;;;19.30;72.60;;;;;;5015286;28;20375;-84
2021/05/10 01:59:20;;;;;;;9.02;3.97;;;19.20;72.50;;;;;;4998145;28;20101;-86
2021/05/10 02:01:47;;;;;;;7.88;4.15;;;19.20;72.60;;;;;;5013834;28;20034;-85
2021/05/10 02:04:12;;;;;;;6.00;3.85;;;19.20;72.70;;;;;;5013662;28;20459;-84
2021/05/10 02:06:38;;;;;;;9.10;4.13;;;19.20;73.00;;;;;;5013958;28;20026;-85
2021/05/10 02:09:04;;;;;;;6.85;4.07;;;19.10;73.30;;;;;;4997513;28;20037;-86
2021/05/10 02:11:29;;;;;;;9.70;4.55;;;19.10;73.50;;;;;;5015402;28;20076;-86
2021/05/10 02:13:55;;;;;;;12.02;5.13;;;19.10;73.70;;;;;;5013943;28;20041;-84
2021/05/10 02:16:22;;;;;;;7.32;4.03;;;19.00;73.70;;;;;;5013545;28;20050;-86
2021/05/10 02:18:48;;;;;;;6.35;4.07;;;19.00;73.80;;;;;;5013741;28;20442;-85
2021/05/10 02:21:13;;;;;;;5.20;3.78;;;18.90;73.90;;;;;;5014211;28;20108;-85
2021/05/10 02:23:41;;;;;;;8.52;4.75;;;18.90;74.10;;;;;;5014792;28;20066;-85
2021/05/10 02:26:08;;;;;;;6.72;5.10;;;18.80;74.20;;;;;;5014979;28;20116;-85
2021/05/10 02:28:35;;;;;;;9.52;4.47;;;18.80;74.60;;;;;;5013719;28;20034;-86
2021/05/10 02:31:02;;;;;;;6.05;4.25;;;18.80;74.80;;;;;;5014750;28;20026;-87
2021/05/10 02:33:29;;;;;;;5.85;3.83;;;18.80;75.00;;;;;;5015083;28;20363;-87
2021/05/10 02:35:56;;;;;;;7.05;4.00;;;18.80;75.20;;;;;;5014571;28;20033;-87
2021/05/10 02:38:22;;;;;;;7.07;3.78;;;18.80;75.20;;;;;;4997632;28;20501;-87
2021/05/10 02:40:54;;;;;;;7.32;3.97;;;18.70;75.20;;;;;;5090905;27;20855;-76
2021/05/10 02:43:23;;;;;;;9.13;5.03;;;18.70;75.30;;;;;;5089415;28;20054;-77
2021/05/10 02:45:48;;;;;;;8.32;4.55;;;18.80;75.50;;;;;;5090753;28;20468;-76
2021/05/10 02:48:14;;;;;;;8.30;4.50;;;18.70;75.50;;;;;;5089397;28;20103;-76
2021/05/10 02:50:40;;;;;;;12.02;3.83;;;18.70;75.50;;;;;;5089403;28;20032;-76
2021/05/10 02:53:06;;;;;;;5.85;3.90;;;18.70;75.50;;;;;;5090691;28;20059;-76
2021/05/10 02:55:32;;;;;;;4.63;3.70;;;18.70;75.40;;;;;;5089466;28;20044;-76
2021/05/10 02:57:58;;;;;;;5.25;3.58;;;18.70;75.30;;;;;;5089273;28;20017;-76
2021/05/10 03:00:26;;;;;;;7.30;3.42;;;18.70;75.20;;;;;;5089151;28;20082;-77
2021/05/10 03:02:55;;;;;;;5.68;3.33;;;18.70;75.10;;;;;;5089028;28;20016;-76
2021/05/10 03:05:20;;;;;;;6.13;3.47;;;18.70;75.00;;;;;;5089332;28;20469;-76
2021/05/10 03:07:46;;;;;;;6.50;3.65;;;18.60;74.80;;;;;;5089306;28;20063;-76
2021/05/10 03:10:14;;;;;;;5.43;2.85;;;18.60;74.80;;;;;;5072182;28;20480;-76
2021/05/10 03:12:40;;;;;;;5.82;3.10;;;18.70;74.80;;;;;;5088933;28;20020;-76
2021/05/10 03:15:14;;;;;;;6.57;2.75;;;18.70;74.80;;;;;;5072202;28;20020;-76
2021/05/10 03:17:40;;;;;;;5.85;2.72;;;18.70;74.70;;;;;;5072687;28;20021;-75
2021/05/10 03:20:11;;;;;;;3.83;2.35;;;18.60;74.50;;;;;;5088784;28;20036;-75
2021/05/10 03:22:38;;;;;;;2.97;2.00;;;18.60;74.30;;;;;;5090005;28;20024;-75
2021/05/10 03:25:05;;;;;;;8.07;2.13;;;18.70;74.40;;;;;;5088613;28;20495;-76
2021/05/10 03:27:39;;;;;;;2.63;1.30;;;18.70;73.70;;;;;;5088715;28;20035;-75
2021/05/10 03:30:07;;;;;;;3.97;1.35;;;18.70;73.20;;;;;;5090122;28;20051;-75
2021/05/10 03:32:32;;;;;;;4.60;1.48;;;18.70;72.20;;;;;;5088827;28;20024;-76
2021/05/10 03:34:58;;;;;;;5.60;1.00;;;18.70;71.30;;;;;;5071792;28;20035;-74
2021/05/10 03:37:23;;;;;;;7.93;1.20;;;18.80;70.60;;;;;;5089845;28;20545;-74
2021/05/10 03:39:49;;;;;;;4.78;0.90;;;18.80;69.80;;;;;;5089431;28;20075;-75
2021/05/10 03:42:14;;;;;;;4.22;1.02;;;18.80;69.40;;;;;;5088608;28;20032;-75
2021/05/10 03:44:40;;;;;;;2.30;0.70;;;18.90;68.90;;;;;;5089682;28;20050;-74
2021/05/10 03:47:05;;;;;;;3.60;1.05;;;18.90;68.70;;;;;;5088297;28;20032;-75
2021/05/10 03:49:31;;;;;;;2.50;0.60;;;18.90;68.10;;;;;;5088462;28;20107;-75
2021/05/10 03:51:57;;;;;;;6.10;1.02;;;18.90;67.50;;;;;;5059862;28;20029;-76
2021/05/10 03:54:22;;;;;;;3.58;0.70;;;19.00;67.00;;;;;;5041376;28;20097;-74
2021/05/10 03:56:48;;;;;;;2.03;0.70;;;19.10;66.50;;;;;;5058018;28;20033;-74
2021/05/10 03:59:14;;;;;;;3.13;0.73;;;19.10;66.20;;;;;;5074687;28;20039;-75
2021/05/10 04:01:39;;;;;;;6.38;0.70;;;19.10;66.20;;;;;;5072312;28;20522;-75
2021/05/10 04:09:31;;;;;;;3.95;0.75;;;19.20;64.40;;;;;;5058262;28;20472;-80
2021/05/10 04:14:41;;;;;;;2.03;0.75;;;19.30;63.50;;;;;;5074833;28;20544;-77
2021/05/10 04:17:06;;;;;;;3.47;0.50;;;19.40;62.20;;;;;;5040075;28;20119;-78
2021/05/10 04:19:32;;;;;;;2.25;0.68;;;19.40;62.50;;;;;;5074205;28;20480;-78
2021/05/10 04:21:57;;;;;;;3.55;0.70;;;19.50;62.00;;;;;;5057504;28;20024;-84
2021/05/10 04:24:24;;;;;;;5.25;0.70;;;19.50;61.60;;;;;;5058063;28;20021;-79
2021/05/10 04:26:50;;;;;;;2.30;0.80;;;19.60;61.40;;;;;;5057712;28;20016;-82
2021/05/10 04:29:16;;;;;;;3.13;0.70;;;19.60;61.00;;;;;;5075540;28;20108;-81
2021/05/10 04:31:41;;;;;;;4.25;0.60;;;19.70;61.20;;;;;;5057425;28;20128;-83
2021/05/10 04:34:07;;;;;;;2.47;0.60;;;19.70;60.00;;;;;;5057850;28;20130;-82
2021/05/10 04:36:33;;;;;;;4.15;0.95;;;19.80;60.00;;;;;;5040809;28;20033;-84
2021/05/10 04:38:59;;;;;;;2.85;0.82;;;19.80;59.00;;;;;;5075157;28;20055;-79
2021/05/10 04:41:24;;;;;;;4.40;0.70;;;19.90;58.90;;;;;;5057852;28;20044;-84
2021/05/10 04:43:50;;;;;;;5.72;0.93;;;19.90;58.80;;;;;;5057438;28;20102;-82
2021/05/10 04:46:16;;;;;;;3.47;0.65;;;20.00;58.60;;;;;;5074174;28;20028;-80
2021/05/10 04:48:42;;;;;;;3.58;0.52;;;20.00;58.60;;;;;;5057536;28;20020;-87
2021/05/10 04:51:08;;;;;;;2.90;0.60;;;20.00;58.60;;;;;;5073904;28;20056;-82
2021/05/10 04:53:33;;;;;;;3.88;0.50;;;20.10;58.30;;;;;;5074892;28;20059;-80
2021/05/10 04:55:59;;;;;;;2.95;0.70;;;20.00;58.40;;;;;;5075060;28;20383;-81
2021/05/10 04:58:25;;;;;;;2.45;0.68;;;20.10;58.20;;;;;;5040568;28;20535;-81
2021/05/10 05:00:50;;;;;;;3.22;0.88;;;20.10;58.60;;;;;;5056960;28;20025;-77
2021/05/10 05:03:16;;;;;;;4.65;0.70;;;20.10;58.70;;;;;;5073540;28;20033;-76
2021/05/10 05:05:41;;;;;;;5.40;0.73;;;20.10;58.80;;;;;;5072272;28;20021;-77
2021/05/10 05:08:07;;;;;;;2.63;0.70;;;20.10;58.70;;;;;;5063861;28;20079;-78
2021/05/10 05:10:33;;;;;;;7.30;0.80;;;20.10;58.80;;;;;;5028605;28;20036;-77
2021/05/10 05:12:58;;;;;;;3.50;0.90;;;20.10;58.80;;;;;;5037259;28;20036;-78
2021/05/10 05:15:24;;;;;;;7.25;0.65;;;20.10;58.60;;;;;;5040981;28;20107;-76
2021/05/10 05:17:50;;;;;;;5.90;0.70;;;20.10;59.10;;;;;;5065002;28;20029;-78
2021/05/10 05:20:18;;;;;;;2.55;0.68;;;20.10;59.30;;;;;;5067221;28;20020;-80
2021/05/10 05:22:43;;;;;;;3.53;0.77;;;20.10;59.70;;;;;;5057093;28;20028;-82
2021/05/10 05:25:10;;;;;;;6.07;0.70;;;20.10;60.20;;;;;;5073531;28;20029;-78
2021/05/10 05:27:36;;;;;;;7.22;0.80;;;20.10;60.90;;;;;;5073779;28;20025;-83
2021/05/10 05:30:03;;;;;;;5.25;0.80;;;20.00;61.20;;;;;;5073217;28;20031;-81
2021/05/10 05:32:30;;;;;;;5.40;0.85;;;20.10;61.70;;;;;;5073353;28;20017;-84
2021/05/10 05:34:56;;;;;;;5.35;0.80;;;20.00;62.20;;;;;;5072837;28;20040;-81
2021/05/10 05:37:21;;;;;;;12.00;1.10;;;19.90;62.60;;;;;;5073250;28;20111;-80
2021/05/10 05:39:47;;;;;;;7.80;1.25;;;19.90;63.10;;;;;;5074216;28;20052;-81
2021/05/10 05:42:13;;;;;;;3.45;0.80;;;19.90;63.50;;;;;;5056759;28;20506;-83
2021/05/10 05:44:43;;;;;;;7.57;0.80;;;19.80;63.80;;;;;;5056417;28;20410;-84
2021/05/10 05:47:15;;;;;;;5.35;1.00;;;19.70;64.10;;;;;;5057321;28;20031;-84
2021/05/10 05:49:41;;;;;;;4.75;0.60;;;19.70;64.50;;;;;;5057183;28;20025;-81
2021/05/10 05:52:06;;;;;;;7.43;1.15;;;19.60;64.80;;;;;;5073083;28;20158;-83
2021/05/10 05:54:33;;;;;;;3.80;0.90;;;19.50;65.00;;;;;;5056014;28;20119;-84
2021/05/10 05:56:58;;;;;;;4.40;0.80;;;19.50;65.40;;;;;;5042797;28;20040;-85
2021/05/10 05:59:24;;;;;;;2.85;0.60;;;19.50;66.00;;;;;;5052557;28;20373;-78
2021/05/10 06:01:50;;;;;;;2.03;0.70;;;19.40;66.40;;;;;;5055334;28;20017;-81
2021/05/10 06:04:19;;;;;;;4.70;0.90;;;19.40;66.60;;;;;;5050508;28;20103;-83
2021/05/10 06:06:44;;;;;;;3.92;0.63;;;19.30;66.40;;;;;;5053433;28;20045;-79
2021/05/10 06:09:11;;;;;;;5.50;0.70;;;19.30;66.40;;;;;;5054159;28;20396;-81
2021/05/10 06:11:37;;;;;;;3.97;0.45;;;19.30;66.30;;;;;;5036177;28;20583;-81
2021/05/10 06:14:03;;;;;;;3.72;0.60;;;19.20;66.30;;;;;;5066675;28;20036;-80
2021/05/10 06:16:33;;;;;;;2.17;0.38;;;19.20;65.80;;;;;;5049420;28;20518;-86
2021/05/10 06:18:59;;;;;;;1.08;0.50;;;19.10;65.80;;;;;;5052763;28;20040;-85
2021/05/10 06:21:26;;;;;;;1.50;0.40;;;19.10;66.20;;;;;;5053417;28;20029;-83
2021/05/10 06:23:52;;;;;;;1.95;0.30;;;19.00;66.30;;;;;;5051647;28;20044;-84
2021/05/10 06:26:18;;;;;;;2.90;0.22;;;19.00;65.80;;;;;;5051775;28;20025;-81
2021/05/10 06:28:45;;;;;;;0.50;0.10;;;18.90;65.40;;;;;;5053445;28;20186;-80
2021/05/10 06:31:11;;;;;;;1.48;0.10;;;18.90;65.40;;;;;;5035586;28;20029;-81
2021/05/10 06:33:37;;;;;;;1.08;0.10;;;18.90;65.50;;;;;;5035777;28;20029;-80
2021/05/10 06:36:03;;;;;;;0.75;0.20;;;18.80;65.40;;;;;;5053378;28;20029;-81
2021/05/10 06:38:33;;;;;;;0.43;0.10;;;18.80;65.40;;;;;;5051935;28;20024;-81
2021/05/10 06:40:59;;;;;;;2.33;0.17;;;18.70;65.70;;;;;;5035065;28;20152;-77
2021/05/10 06:43:24;;;;;;;0.77;0.10;;;18.70;66.00;;;;;;5051730;28;20207;-77
2021/05/10 06:45:50;;;;;;;1.23;0.10;;;18.70;66.30;;;;;;5034806;28;20026;-79
2021/05/10 06:48:31;;;;;;;0.57;0.10;;;18.80;66.70;;;;;;5052012;28;20468;-75
2021/05/10 06:50:57;;;;;;;2.00;0.15;;;18.80;66.60;;;;;;5052843;28;20028;-78
2021/05/10 06:53:23;;;;;;;1.38;0.20;;;18.90;66.90;;;;;;5051606;28;20060;-78
2021/05/10 06:55:53;;;;;;;1.67;0.15;;;18.90;66.70;;;;;;5051639;28;20033;-77
2021/05/10 06:58:19;;;;;;;0.40;0.10;;;18.90;66.10;;;;;;5059561;28;20020;-76
2021/05/10 07:00:47;;;;;;;1.73;0.25;;;19.00;65.20;;;;;;5045891;28;20037;-78
2021/05/10 07:03:12;;;;;;;0.57;0.20;;;19.00;65.30;;;;;;5056913;28;20120;-75
2021/05/10 07:05:39;;;;;;;3.40;0.20;;;19.00;65.40;;;;;;5063368;28;20531;-74
2021/05/10 07:08:13;;;;;;;0.30;0.20;;;19.00;65.50;;;;;;5051464;28;20021;-76
2021/05/10 07:10:39;;;;;;;2.53;0.40;;;19.10;65.60;;;;;;5034953;28;20029;-74
2021/05/10 07:13:04;;;;;;;1.55;0.20;;;19.10;65.80;;;;;;5052745;28;20539;-74
2021/05/10 07:15:31;;;;;;;3.88;0.55;;;19.10;66.00;;;;;;5051430;28;20486;-77
2021/05/10 07:18:04;;;;;;;0.70;0.20;;;19.10;66.10;;;;;;5051408;28;20061;-75
2021/05/10 07:20:30;;;;;;;0.68;0.22;;;19.10;66.20;;;;;;5052532;28;20024;-74
2021/05/10 07:22:56;;;;;;;2.92;0.30;;;19.00;66.40;;;;;;5051338;28;20377;-76
2021/05/10 07:25:22;;;;;;;1.83;0.30;;;19.00;66.20;;;;;;5034576;28;20059;-75
2021/05/10 07:27:48;;;;;;;3.45;0.60;;;19.00;65.70;;;;;;5055068;28;20025;-75
2021/05/10 07:30:15;;;;;;;3.95;0.70;;;19.10;65.60;;;;;;5056462;28;20025;-78
2021/05/10 07:32:40;;;;;;;1.70;0.55;;;19.10;65.20;;;;;;5038622;28;20029;-74
2021/05/10 07:35:06;;;;;;;2.97;0.65;;;19.10;64.90;;;;;;5038378;28;20041;-76
2021/05/10 07:37:32;;;;;;;2.25;0.50;;;19.10;65.20;;;;;;5038453;28;20029;-76
2021/05/10 07:39:58;;;;;;;7.20;0.80;;;19.20;65.10;;;;;;5038101;28;20057;-78
2021/05/10 07:42:23;;;;;;;2.67;0.50;;;19.20;64.80;;;;;;5021786;28;20400;-75
2021/05/10 07:44:49;;;;;;;3.15;0.50;;;19.20;65.10;;;;;;5054846;28;20174;-74
2021/05/10 07:47:16;;;;;;;2.92;0.50;;;19.30;65.20;;;;;;5037766;28;20028;-75
2021/05/10 07:49:42;;;;;;;5.35;0.60;;;19.30;65.10;;;;;;5021984;28;20489;-75
2021/05/10 07:52:08;;;;;;;2.65;0.70;;;19.30;65.30;;;;;;5043209;28;20086;-74
2021/05/10 07:54:34;;;;;;;1.80;0.70;;;19.20;65.40;;;;;;5054374;28;20032;-80
2021/05/10 07:57:00;;;;;;;4.47;0.68;;;19.20;65.50;;;;;;5074584;28;20116;-78
2021/05/10 07:59:25;;;;;;;2.67;0.60;;;19.20;65.90;;;;;;5057343;28;20031;-78
2021/05/10 08:01:54;;;;;;;5.38;0.70;;;19.10;66.40;;;;;;5054454;28;20029;-76
2021/05/10 08:04:20;;;;;;;3.97;0.52;;;19.00;66.40;;;;;;5058602;28;20021;-77
2021/05/10 08:06:46;;;;;;;2.33;0.50;;;18.90;66.40;;;;;;5061089;28;20043;-75
2021/05/10 08:09:11;;;;;;;2.97;0.60;;;18.90;66.60;;;;;;5045337;28;20158;-77
2021/05/10 08:11:39;;;;;;;2.30;0.70;;;18.90;67.00;;;;;;5034612;28;20077;-77
2021/05/10 08:14:05;;;;;;;1.83;0.50;;;18.90;67.50;;;;;;5069412;28;20021;-77
2021/05/10 08:16:30;;;;;;;3.63;0.63;;;18.70;67.70;;;;;;5057579;28;20487;-75
2021/05/10 08:18:56;;;;;;;1.73;0.47;;;18.70;68.10;;;;;;5065325;28;20029;-75
2021/05/10 08:21:22;;;;;;;4.30;0.70;;;18.70;68.30;;;;;;5065112;28;20380;-74
2021/05/10 08:23:47;;;;;;;1.48;0.50;;;18.80;68.50;;;;;;5059573;28;20021;-77
2021/05/10 08:26:13;;;;;;;3.88;0.68;;;18.90;68.10;;;;;;5026343;28;20027;-76
2021/05/10 08:28:39;;;;;;;0.90;0.40;;;18.90;68.10;;;;;;5056947;28;20021;-75
2021/05/10 08:31:04;;;;;;;3.58;0.88;;;19.00;68.10;;;;;;5048174;28;20025;-75
2021/05/10 08:33:30;;;;;;;3.70;0.50;;;19.00;68.10;;;;;;5051445;28;20029;-76
2021/05/10 08:35:56;;;;;;;3.40;1.35;;;18.90;69.30;;;;;;5032255;28;20046;-76
2021/05/10 08:38:22;;;;;;;4.15;0.50;;;18.80;73.50;;;;;;5048380;28;20116;-76
2021/05/10 08:40:50;;;;;;;1.42;0.50;;;18.50;75.10;;;;;;5057038;28;20132;-81
2021/05/10 08:43:26;;;;;;;1.35;0.60;;;18.20;77.20;;;;;;5074193;28;20081;-79
2021/05/10 08:45:56;;;;;;;2.50;0.50;;;18.10;76.70;;;;;;5071506;28;20036;-82
2021/05/10 08:48:23;;;;;;;1.38;0.50;;;18.00;77.30;;;;;;5042032;28;20480;-80
2021/05/10 08:50:54;;;;;;;2.22;0.60;;;18.00;77.00;;;;;;5052048;28;20053;-80
2021/05/10 08:53:37;;;;;;;2.47;0.63;;;17.90;76.70;;;;;;5062298;28;20025;-82
2021/05/10 08:56:07;;;;;;;2.92;0.60;;;18.00;76.50;;;;;;5053686;28;20028;-83
2021/05/10 08:58:43;;;;;;;2.47;0.70;;;18.00;76.10;;;;;;5057237;28;20021;-81
2021/05/10 09:01:10;;;;;;;2.95;0.70;;;18.00;75.40;;;;;;5073801;28;20548;-80
2021/05/10 09:03:45;;;;;;;2.60;0.60;;;18.00;75.30;;;;;;5074080;28;20037;-80
2021/05/10 09:06:15;;;;;;;3.42;0.90;;;18.00;75.10;;;;;;5073909;28;20388;-82
2021/05/10 09:08:46;;;;;;;1.67;0.70;;;18.00;74.80;;;;;;5073752;28;20028;-81
2021/05/10 09:11:14;;;;;;;2.50;0.90;;;18.10;74.50;;;;;;5075265;28;20036;-81
2021/05/10 09:13:43;;;;;;;1.60;0.60;;;18.20;74.20;;;;;;5056840;28;20036;-77
2021/05/10 09:16:10;;;;;;;2.15;0.50;;;18.20;73.40;;;;;;5071099;28;20028;-76
2021/05/10 09:18:37;;;;;;;1.73;0.60;;;18.20;72.60;;;;;;5056764;28;20035;-73
2021/05/10 09:21:11;;;;;;;2.70;0.70;;;18.30;72.50;;;;;;5068373;28;20040;-76
2021/05/10 09:23:37;;;;;;;1.77;0.77;;;18.30;72.50;;;;;;5053185;28;20025;-75
2021/05/10 09:26:03;;;;;;;1.83;0.70;;;18.30;71.80;;;;;;5022753;28;20124;-73
2021/05/10 09:28:36;;;;;;;4.30;0.70;;;18.30;71.60;;;;;;5052921;28;20104;-75
2021/05/10 09:31:05;;;;;;;1.95;0.80;;;18.30;71.20;;;;;;5054126;28;20384;-73
2021/05/10 09:33:31;;;;;;;2.00;0.80;;;18.40;71.30;;;;;;5057044;28;20039;-75
2021/05/10 09:36:07;;;;;;;1.45;0.50;;;18.40;71.00;;;;;;5065539;28;20331;-75
2021/05/10 09:38:37;;;;;;;1.90;0.70;;;18.50;70.90;;;;;;5069184;28;20035;-72
2021/05/10 09:41:08;;;;;;;1.45;0.70;;;18.60;70.80;;;;;;5056118;28;20131;-73
2021/05/10 09:43:39;;;;;;;2.08;0.47;;;18.60;70.70;;;;;;5060372;28;20492;-73
2021/05/10 09:46:11;;;;;;;2.25;0.70;;;18.70;70.10;;;;;;5053279;28;20025;-74
2021/05/10 09:48:39;;;;;;;2.35;0.90;;;18.70;69.60;;;;;;5070751;28;20456;-74
2021/05/10 09:51:08;;;;;;;1.42;0.60;;;18.70;69.40;;;;;;5066855;28;20388;-74
2021/05/10 09:53:38;;;;;;;1.92;0.77;;;18.80;69.60;;;;;;5068330;28;20456;-73
2021/05/10 09:56:11;;;;;;;1.08;0.60;;;18.80;68.90;;;;;;5072522;28;20028;-74
2021/05/10 09:58:46;;;;;;;3.13;0.85;;;18.80;69.00;;;;;;5072945;28;20395;-75
2021/05/10 10:01:12;;;;;;;1.65;0.60;;;18.80;68.90;;;;;;5073772;28;20025;-75
2021/05/10 10:03:43;;;;;;;1.65;0.70;;;18.80;69.00;;;;;;5071930;28;20056;-74
2021/05/10 10:06:14;;;;;;;3.70;0.70;;;18.80;69.00;;;;;;5064355;28;20020;-73
2021/05/10 10:08:41;;;;;;;3.55;0.90;;;18.80;69.10;;;;;;5063666;28;20017;-72
2021/05/10 10:11:13;;;;;;;3.30;0.98;;;18.80;69.30;;;;;;5073581;28;20033;-73
2021/05/10 10:13:38;;;;;;;2.38;0.90;;;18.80;69.60;;;;;;5072414;28;20064;-72
2021/05/10 10:16:07;;;;;;;2.20;0.80;;;18.80;69.90;;;;;;5072370;28;20063;-76
2021/05/10 10:18:36;;;;;;;3.33;0.85;;;18.80;70.20;;;;;;5073622;28;20521;-83
2021/05/10 10:21:03;;;;;;;4.35;0.98;;;18.70;70.40;;;;;;5066285;28;20381;-82
2021/05/10 10:23:29;;;;;;;1.92;0.90;;;18.70;70.40;;;;;;5035396;28;20038;-82
2021/05/10 10:25:59;;;;;;;4.45;1.10;;;18.60;70.90;;;;;;5035933;28;20021;-79
2021/05/10 10:28:27;;;;;;;3.60;1.00;;;18.50;70.40;;;;;;5053389;28;20029;-82
2021/05/10 10:31:04;;;;;;;4.57;1.05;;;18.30;70.70;;;;;;5066663;28;20132;-81
2021/05/10 10:33:49;;;;;;;3.17;1.20;;;18.20;71.60;;;;;;5073512;28;20063;-79
2021/05/10 10:36:43;;;;;;;3.72;1.33;;;18.00;72.20;;;;;;5073691;28;20035;-81
2021/05/10 10:39:16;;;;;;;3.05;1.70;;;17.90;73.60;;;;;;5072300;28;20024;-80
2021/05/10 10:41:58;;;;;;;4.03;1.42;;;17.90;74.40;;;;;;5073255;28;20040;-83
2021/05/10 10:44:59;;;;;;;4.47;1.67;;;17.90;74.90;;;;;;5073152;28;20048;-79
2021/05/10 10:47:45;;;;;;;3.92;1.80;;;17.90;75.70;;;;;;5059005;28;20095;-81
2021/05/10 10:50:18;;;;;;;4.25;2.05;;;17.90;76.00;;;;;;5051902;28;20067;-81
2021/05/10 10:52:57;;;;;;;3.92;2.13;;;17.80;76.40;;;;;;5061870;28;20484;-81
2021/05/10 10:55:37;;;;;;;3.08;1.40;;;17.80;76.60;;;;;;5055701;28;20020;-79
2021/05/10 10:58:12;;;;;;;3.97;1.65;;;17.70;76.60;;;;;;5072007;28;20028;-80
2021/05/10 11:00:59;;;;;;;3.55;1.70;;;17.70;77.10;;;;;;5066087;28;20104;-81
2021/05/10 11:03:26;;;;;;;3.92;1.63;;;17.70;77.60;;;;;;5075960;28;20017;-81
2021/05/10 11:05:53;;;;;;;4.63;2.47;;;17.70;78.10;;;;;;5076916;28;20095;-79
2021/05/10 11:08:52;;;;;;;4.07;2.00;;;17.70;78.40;;;;;;5075656;28;20159;-78
2021/05/10 11:11:29;;;;;;;4.78;1.80;;;17.70;78.30;;;;;;5075639;28;20161;-80
2021/05/10 11:13:58;;;;;;;4.07;1.58;;;17.70;78.40;;;;;;5076983;28;20021;-79
2021/05/10 11:16:46;;;;;;;6.18;2.60;;;17.70;78.20;;;;;;5072882;28;20021;-81
2021/05/10 11:19:36;;;;;;;4.93;3.13;;;17.60;78.80;;;;;;5056830;28;20028;-79
2021/05/10 11:22:22;;;;;;;4.90;3.35;;;17.50;79.70;;;;;;5056649;28;20017;-80
2021/05/10 11:24:47;;;;;;;5.78;3.00;;;17.30;80.30;;;;;;5055586;28;20469;-78
2021/05/10 11:27:28;;;;;;;6.55;4.45;;;17.10;81.20;;;;;;5055490;28;20033;-80
2021/05/10 11:29:54;;;;;;;6.10;4.28;;;17.00;81.50;;;;;;5056585;28;20065;-80
2021/05/10 11:32:21;;;;;;;7.32;4.07;;;16.90;82.20;;;;;;5058319;28;20024;-80
2021/05/10 11:34:48;;;;;;;8.13;4.30;;;16.70;82.90;;;;;;5075465;28;20028;-80
2021/05/10 11:37:23;;;;;;;6.97;4.45;;;16.70;83.50;;;;;;5074776;28;20024;-79
2021/05/10 11:39:56;;;;;;;7.05;4.18;;;16.60;83.40;;;;;;5075974;28;20392;-78
2021/05/10 11:42:29;;;;;;;4.18;2.22;;;16.50;84.20;;;;;;5076510;28;20393;-78
2021/05/10 11:44:57;;;;;;;3.92;2.30;;;16.40;84.30;;;;;;5076154;28;20024;-79
2021/05/10 11:47:23;;;;;;;4.40;1.75;;;16.30;84.30;;;;;;5074995;28;20013;-80
2021/05/10 11:49:50;;;;;;;2.20;1.23;;;16.30;84.20;;;;;;5076298;28;20036;-79
2021/05/10 11:52:24;;;;;;;3.97;1.70;;;16.40;84.10;;;;;;5076515;28;20457;-80
2021/05/10 11:54:53;;;;;;;2.38;1.35;;;16.50;83.50;;;;;;5071205;28;20468;-79
2021/05/10 11:57:20;;;;;;;4.07;1.67;;;16.50;83.00;;;;;;5057266;28;20480;-79
2021/05/10 11:59:47;;;;;;;4.05;1.60;;;16.60;82.90;;;;;;5076032;28;20376;-79
2021/05/10 12:02:14;;;;;;;3.95;1.48;;;16.70;82.50;;;;;;5075110;28;20037;-80
2021/05/10 12:04:53;;;;;;;3.05;1.42;;;16.90;82.30;;;;;;5076123;28;20051;-79
2021/05/10 12:07:21;;;;;;;5.20;1.70;;;17.10;82.00;;;;;;5075884;28;20047;-80
2021/05/10 12:09:50;;;;;;;3.65;1.25;;;17.30;81.40;;;;;;5075861;28;20107;-79
2021/05/10 12:12:15;;;;;;;3.22;1.48;;;17.70;81.50;;;;;;5074092;28;20155;-81
2021/05/10 12:14:44;;;;;;;3.75;1.63;;;18.10;80.40;;;;;;5074609;28;20119;-81
2021/05/10 12:17:24;;;;;;;3.00;1.23;;;18.40;79.40;;;;;;5074447;28;20089;-80
2021/05/10 12:19:52;;;;;;;4.00;1.50;;;18.80;78.90;;;;;;5055526;28;20037;-79
2021/05/10 12:22:19;;;;;;;2.95;1.20;;;19.30;78.50;;;;;;5054239;28;20048;-81
2021/05/10 12:24:55;;;;;;;1.77;1.00;;;20.00;78.00;;;;;;5055583;28;20104;-81
2021/05/10 12:27:22;;;;;;;3.25;1.13;;;20.70;75.20;;;;;;5055527;28;20380;-82
2021/05/10 12:29:49;;;;;;;1.45;0.65;;;21.30;74.20;;;;;;5067234;28;20033;-79
2021/05/10 12:32:14;;;;;;;1.73;0.63;;;22.10;73.00;;;;;;5075140;28;20035;-78
2021/05/10 12:34:41;;;;;;;2.13;0.70;;;22.60;71.50;;;;;;5073718;28;20036;-81
2021/05/10 12:37:06;;;;;;;1.95;0.77;;;23.00;69.50;;;;;;5065728;28;20033;-81
2021/05/10 12:39:33;;;;;;;3.10;1.10;;;23.20;67.70;;;;;;5061143;28;20032;-80
2021/05/10 12:42:13;;;;;;;1.55;0.60;;;23.40;67.00;;;;;;5073618;28;20031;-80
2021/05/10 12:44:38;;;;;;;2.97;1.00;;;23.40;64.70;;;;;;5074895;28;20064;-80
2021/05/10 12:47:04;;;;;;;1.67;0.77;;;23.40;64.50;;;;;;5040655;28;20384;-80
2021/05/10 12:49:30;;;;;;;1.90;0.65;;;23.30;63.70;;;;;;5073717;28;20032;-80
2021/05/10 12:51:56;;;;;;;3.42;0.98;;;23.20;63.40;;;;;;5057484;28;20107;-80
2021/05/10 12:54:22;;;;;;;2.85;0.98;;;23.40;63.20;;;;;;5074839;28;20032;-81
2021/05/10 12:56:47;;;;;;;3.60;0.90;;;23.70;62.60;;;;;;5074831;28;20046;-81
2021/05/10 12:59:13;;;;;;;4.57;1.20;;;24.00;62.10;;;;;;5073525;28;20426;-80